sensor_id;sensor_type;location;lat;lon;timestamp;pressure;altitude;pressure_sealevel;temperature
62930;BMP280;49036;42.782;23.108;2023-01-04T00:01:47;94902.16;;;5.72
62930;BMP280;49036;42.782;23.108;2023-01-04T00:04:12;94898.75;;;5.79
62930;BMP280;49036;42.782;23.108;2023-01-04T00:06:38;94896.09;;;5.73
62930;BMP280;49036;42.782;23.108;2023-01-04T00:09:03;94896.94;;;5.81
62930;BMP280;49036;42.782;23.108;2023-01-04T00:11:29;94896.94;;;5.81
62930;BMP280;49036;42.782;23.108;2023-01-04T00:13:56;94898.28;;;5.88
62930;BMP280;49036;42.782;23.108;2023-01-04T00:16:25;94891.81;;;5.99
62930;BMP280;49036;42.782;23.108;2023-01-04T00:18:51;94894.34;;;6.10
62930;BMP280;49036;42.782;23.108;2023-01-04T00:21:25;94886.00;;;6.02
62930;BMP280;49036;42.782;23.108;2023-01-04T00:23:53;94887.25;;;6.01
62930;BMP280;49036;42.782;23.108;2023-01-04T00:26:27;94892.69;;;5.94
62930;BMP280;49036;42.782;23.108;2023-01-04T00:28:58;94897.03;;;5.89
62930;BMP280;49036;42.782;23.108;2023-01-04T00:31:24;94896.72;;;5.79
62930;BMP280;49036;42.782;23.108;2023-01-04T00:33:54;94891.88;;;5.86
62930;BMP280;49036;42.782;23.108;2023-01-04T00:36:20;94902.78;;;5.78
62930;BMP280;49036;42.782;23.108;2023-01-04T00:38:46;94897.38;;;5.72
62930;BMP280;49036;42.782;23.108;2023-01-04T00:41:12;94894.06;;;5.74
62930;BMP280;49036;42.782;23.108;2023-01-04T00:43:38;94905.53;;;5.65
62930;BMP280;49036;42.782;23.108;2023-01-04T00:46:03;94905.00;;;5.53
62930;BMP280;49036;42.782;23.108;2023-01-04T00:48:31;94903.94;;;5.43
62930;BMP280;49036;42.782;23.108;2023-01-04T00:50:56;94902.78;;;5.38
62930;BMP280;49036;42.782;23.108;2023-01-04T00:53:24;94905.84;;;5.48
62930;BMP280;49036;42.782;23.108;2023-01-04T00:55:49;94906.69;;;5.43
62930;BMP280;49036;42.782;23.108;2023-01-04T00:58:15;94911.13;;;5.33
62930;BMP280;49036;42.782;23.108;2023-01-04T01:00:40;94912.72;;;5.28
62930;BMP280;49036;42.782;23.108;2023-01-04T01:03:06;94913.56;;;5.36
62930;BMP280;49036;42.782;23.108;2023-01-04T01:05:33;94920.47;;;5.30
62930;BMP280;49036;42.782;23.108;2023-01-04T01:07:59;94918.88;;;5.34
62930;BMP280;49036;42.782;23.108;2023-01-04T01:10:45;94921.53;;;5.40
62930;BMP280;49036;42.782;23.108;2023-01-04T01:13:10;94922.19;;;5.46
62930;BMP280;49036;42.782;23.108;2023-01-04T01:15:36;94918.88;;;5.47
62930;BMP280;49036;42.782;23.108;2023-01-04T01:18:01;94914.22;;;5.42
62930;BMP280;49036;42.782;23.108;2023-01-04T01:20:27;94916.03;;;5.40
62930;BMP280;49036;42.782;23.108;2023-01-04T01:22:52;94918.34;;;5.36
62930;BMP280;49036;42.782;23.108;2023-01-04T01:25:18;94922.16;;;5.33
62930;BMP280;49036;42.782;23.108;2023-01-04T01:27:43;94921.19;;;5.30
62930;BMP280;49036;42.782;23.108;2023-01-04T01:30:09;94922.34;;;5.21
62930;BMP280;49036;42.782;23.108;2023-01-04T01:32:34;94920.97;;;5.15
62930;BMP280;49036;42.782;23.108;2023-01-04T01:35:00;94912.91;;;5.04
62930;BMP280;49036;42.782;23.108;2023-01-04T01:37:25;94919.75;;;4.97
62930;BMP280;49036;42.782;23.108;2023-01-04T01:39:51;94913.94;;;4.87
62930;BMP280;49036;42.782;23.108;2023-01-04T01:42:20;94912.97;;;4.85
62930;BMP280;49036;42.782;23.108;2023-01-04T01:45:02;94912.81;;;4.77
62930;BMP280;49036;42.782;23.108;2023-01-04T01:47:48;94916.31;;;4.78
62930;BMP280;49036;42.782;23.108;2023-01-04T01:50:21;94910.69;;;4.70
62930;BMP280;49036;42.782;23.108;2023-01-04T01:52:48;94907.94;;;4.70
62930;BMP280;49036;42.782;23.108;2023-01-04T01:55:14;94914.53;;;4.80
62930;BMP280;49036;42.782;23.108;2023-01-04T01:57:41;94912.63;;;4.75
62930;BMP280;49036;42.782;23.108;2023-01-04T02:00:10;94907.94;;;4.70
62930;BMP280;49036;42.782;23.108;2023-01-04T02:02:42;94919.47;;;4.69
62930;BMP280;49036;42.782;23.108;2023-01-04T02:05:09;94915.25;;;4.68
62930;BMP280;49036;42.782;23.108;2023-01-04T02:07:36;94909.97;;;4.70
62930;BMP280;49036;42.782;23.108;2023-01-04T02:10:02;94907.94;;;4.70
62930;BMP280;49036;42.782;23.108;2023-01-04T02:12:28;94901.78;;;4.64
62930;BMP280;49036;42.782;23.108;2023-01-04T02:14:53;94909.97;;;4.70
62930;BMP280;49036;42.782;23.108;2023-01-04T02:33:27;94906.31;;;4.61
62930;BMP280;49036;42.782;23.108;2023-01-04T02:41:28;94910.50;;;4.49
62930;BMP280;49036;42.782;23.108;2023-01-04T02:44:15;94904.94;;;4.55
62930;BMP280;49036;42.782;23.108;2023-01-04T02:47:05;94905.38;;;4.59
62930;BMP280;49036;42.782;23.108;2023-01-04T02:49:30;94909.91;;;4.56
62930;BMP280;49036;42.782;23.108;2023-01-04T02:52:15;94901.66;;;4.56
62930;BMP280;49036;42.782;23.108;2023-01-04T02:54:42;94910.50;;;4.49
62930;BMP280;49036;42.782;23.108;2023-01-04T03:13:22;94903.41;;;4.41
62930;BMP280;49036;42.782;23.108;2023-01-04T03:15:53;94896.25;;;4.32
62930;BMP280;49036;42.782;23.108;2023-01-04T03:18:32;94893.59;;;4.26
62930;BMP280;49036;42.782;23.108;2023-01-04T03:21:01;94900.28;;;4.31
62930;BMP280;49036;42.782;23.108;2023-01-04T03:23:31;94897.41;;;4.23
62930;BMP280;49036;42.782;23.108;2023-01-04T03:26:20;94907.88;;;4.25
62930;BMP280;49036;42.782;23.108;2023-01-04T03:29:13;94898.28;;;4.31
62930;BMP280;49036;42.782;23.108;2023-01-04T03:32:06;94902.44;;;4.38
62930;BMP280;49036;42.782;23.108;2023-01-04T03:34:52;94904.69;;;4.53
62930;BMP280;49036;42.782;23.108;2023-01-04T03:38:10;94907.91;;;4.57
62930;BMP280;49036;42.782;23.108;2023-01-04T03:41:02;94898.81;;;4.62
62930;BMP280;49036;42.782;23.108;2023-01-04T03:44:01;94903.41;;;4.73
62930;BMP280;49036;42.782;23.108;2023-01-04T03:46:51;94908.72;;;4.84
62930;BMP280;49036;42.782;23.108;2023-01-04T03:49:48;94906.31;;;4.93
62930;BMP280;49036;42.782;23.108;2023-01-04T03:52:23;94907.41;;;5.04
62930;BMP280;49036;42.782;23.108;2023-01-04T03:54:51;94904.34;;;5.07
62930;BMP280;49036;42.782;23.108;2023-01-04T03:57:18;94905.53;;;5.12
62930;BMP280;49036;42.782;23.108;2023-01-04T03:59:52;94907.63;;;5.19
62930;BMP280;49036;42.782;23.108;2023-01-04T04:02:24;94907.03;;;5.26
62930;BMP280;49036;42.782;23.108;2023-01-04T04:04:52;94905.22;;;5.29
62930;BMP280;49036;42.782;23.108;2023-01-04T04:07:36;94907.69;;;5.32
62930;BMP280;49036;42.782;23.108;2023-01-04T04:10:20;94918.56;;;5.38
62930;BMP280;49036;42.782;23.108;2023-01-04T04:12:45;94912.00;;;5.41
62930;BMP280;49036;42.782;23.108;2023-01-04T04:15:13;94916.97;;;5.42
62930;BMP280;49036;42.782;23.108;2023-01-04T04:17:38;94918.13;;;5.47
62930;BMP280;49036;42.782;23.108;2023-01-04T04:20:04;94927.13;;;5.47
62930;BMP280;49036;42.782;23.108;2023-01-04T04:22:30;94923.44;;;5.45
62930;BMP280;49036;42.782;23.108;2023-01-04T04:24:55;94920.88;;;5.47
62930;BMP280;49036;42.782;23.108;2023-01-04T04:27:21;94920.88;;;5.47
62930;BMP280;49036;42.782;23.108;2023-01-04T04:29:46;94924.94;;;5.46
62930;BMP280;49036;42.782;23.108;2023-01-04T04:32:12;94926.59;;;5.49
62930;BMP280;49036;42.782;23.108;2023-01-04T04:34:37;94925.03;;;5.40
62930;BMP280;49036;42.782;23.108;2023-01-04T04:37:03;94926.81;;;5.38
62930;BMP280;49036;42.782;23.108;2023-01-04T04:39:28;94940.25;;;5.41
62930;BMP280;49036;42.782;23.108;2023-01-04T04:41:54;94944.38;;;5.48
62930;BMP280;49036;42.782;23.108;2023-01-04T04:44:19;94927.34;;;5.49
62930;BMP280;49036;42.782;23.108;2023-01-04T04:46:46;94928.72;;;5.43
62930;BMP280;49036;42.782;23.108;2023-01-04T04:49:12;94937.41;;;5.47
62930;BMP280;49036;42.782;23.108;2023-01-04T04:51:39;94929.88;;;5.47
62930;BMP280;49036;42.782;23.108;2023-01-04T04:54:04;94930.63;;;5.48
62930;BMP280;49036;42.782;23.108;2023-01-04T04:56:31;94939.97;;;5.45
62930;BMP280;49036;42.782;23.108;2023-01-04T04:58:56;94932.34;;;5.51
62930;BMP280;49036;42.782;23.108;2023-01-04T05:01:22;94944.22;;;5.46
62930;BMP280;49036;42.782;23.108;2023-01-04T05:03:47;94944.09;;;5.51
62930;BMP280;49036;42.782;23.108;2023-01-04T05:06:13;94945.03;;;5.54
62930;BMP280;49036;42.782;23.108;2023-01-04T05:08:38;94954.47;;;5.59
62930;BMP280;49036;42.782;23.108;2023-01-04T05:11:05;94948.41;;;5.60
62930;BMP280;49036;42.782;23.108;2023-01-04T05:13:31;94952.44;;;5.72
62930;BMP280;49036;42.782;23.108;2023-01-04T05:15:57;94949.69;;;5.72
62930;BMP280;49036;42.782;23.108;2023-01-04T05:18:22;94955.31;;;5.67
62930;BMP280;49036;42.782;23.108;2023-01-04T05:20:48;94953.38;;;5.75
62930;BMP280;49036;42.782;23.108;2023-01-04T05:23:17;94955.09;;;5.65
62930;BMP280;49036;42.782;23.108;2023-01-04T05:25:43;94958.16;;;5.61
62930;BMP280;49036;42.782;23.108;2023-01-04T05:28:09;94955.41;;;5.61
62930;BMP280;49036;42.782;23.108;2023-01-04T05:30:35;94964.75;;;5.58
62930;BMP280;49036;42.782;23.108;2023-01-04T05:33:24;94957.25;;;5.59
62930;BMP280;49036;42.782;23.108;2023-01-04T05:35:51;94961.56;;;5.54
62930;BMP280;49036;42.782;23.108;2023-01-04T05:38:17;94959.00;;;5.56
62930;BMP280;49036;42.782;23.108;2023-01-04T05:40:43;94959.00;;;5.56
62930;BMP280;49036;42.782;23.108;2023-01-04T05:43:08;94960.28;;;5.68
62930;BMP280;49036;42.782;23.108;2023-01-04T05:45:34;94960.81;;;5.67
62930;BMP280;49036;42.782;23.108;2023-01-04T05:48:00;94962.94;;;5.74
62930;BMP280;49036;42.782;23.108;2023-01-04T05:50:26;94972.91;;;5.77
62930;BMP280;49036;42.782;23.108;2023-01-04T05:52:52;94974.47;;;5.72
62930;BMP280;49036;42.782;23.108;2023-01-04T05:55:17;94974.47;;;5.72
62930;BMP280;49036;42.782;23.108;2023-01-04T05:57:43;94965.50;;;5.59
62930;BMP280;49036;42.782;23.108;2023-01-04T06:00:10;94960.28;;;5.55
62930;BMP280;49036;42.782;23.108;2023-01-04T06:02:36;94962.63;;;5.51
62930;BMP280;49036;42.782;23.108;2023-01-04T06:05:01;94961.66;;;5.48
62930;BMP280;49036;42.782;23.108;2023-01-04T06:07:28;94969.41;;;5.50
62930;BMP280;49036;42.782;23.108;2023-01-04T06:09:53;94975.66;;;5.50
62930;BMP280;49036;42.782;23.108;2023-01-04T06:12:19;94967.06;;;5.54
62930;BMP280;49036;42.782;23.108;2023-01-04T06:14:45;94974.69;;;5.74
62930;BMP280;49036;42.782;23.108;2023-01-04T06:17:10;94980.63;;;5.65
62930;BMP280;49036;42.782;23.108;2023-01-04T06:19:36;94984.34;;;5.68
62930;BMP280;49036;42.782;23.108;2023-01-04T06:22:02;94981.91;;;5.64
62930;BMP280;49036;42.782;23.108;2023-01-04T06:24:27;94988.69;;;5.63
62930;BMP280;49036;42.782;23.108;2023-01-04T06:26:53;94987.41;;;5.64
62930;BMP280;49036;42.782;23.108;2023-01-04T06:29:18;94988.56;;;5.69
62930;BMP280;49036;42.782;23.108;2023-01-04T06:31:44;94989.53;;;5.71
62930;BMP280;49036;42.782;23.108;2023-01-04T06:34:11;94990.81;;;5.70
62930;BMP280;49036;42.782;23.108;2023-01-04T06:36:37;94988.38;;;5.67
62930;BMP280;49036;42.782;23.108;2023-01-04T06:39:02;94994.06;;;5.56
62930;BMP280;49036;42.782;23.108;2023-01-04T06:41:28;94993.94;;;5.61
62930;BMP280;49036;42.782;23.108;2023-01-04T06:43:53;94992.69;;;5.62
62930;BMP280;49036;42.782;23.108;2023-01-04T06:46:19;94991.19;;;5.61
62930;BMP280;49036;42.782;23.108;2023-01-04T06:48:44;94994.69;;;5.75
62930;BMP280;49036;42.782;23.108;2023-01-04T06:51:10;94989.84;;;5.81
62930;BMP280;49036;42.782;23.108;2023-01-04T06:53:36;94989.44;;;5.77
62930;BMP280;49036;42.782;23.108;2023-01-04T06:56:01;94994.50;;;5.86
62930;BMP280;49036;42.782;23.108;2023-01-04T06:58:27;95000.56;;;5.98
62930;BMP280;49036;42.782;23.108;2023-01-04T07:00:53;94998.97;;;6.02
62930;BMP280;49036;42.782;23.108;2023-01-04T07:03:19;95003.84;;;5.96
62930;BMP280;49036;42.782;23.108;2023-01-04T07:05:45;95005.44;;;5.92
62930;BMP280;49036;42.782;23.108;2023-01-04T07:08:13;95007.22;;;6.02
62930;BMP280;49036;42.782;23.108;2023-01-04T07:10:40;95013.47;;;6.03
62930;BMP280;49036;42.782;23.108;2023-01-04T07:13:07;95015.16;;;5.93
62930;BMP280;49036;42.782;23.108;2023-01-04T07:15:32;95012.94;;;5.91
62930;BMP280;49036;42.782;23.108;2023-01-04T07:17:58;95013.69;;;5.92
62930;BMP280;49036;42.782;23.108;2023-01-04T07:20:24;95015.38;;;5.95
62930;BMP280;49036;42.782;23.108;2023-01-04T07:22:50;95017.94;;;5.93
62930;BMP280;49036;42.782;23.108;2023-01-04T07:25:16;95023.03;;;5.89
62930;BMP280;49036;42.782;23.108;2023-01-04T07:27:41;95018.13;;;5.81
62930;BMP280;49036;42.782;23.108;2023-01-04T07:30:07;95015.09;;;5.85
62930;BMP280;49036;42.782;23.108;2023-01-04T07:32:33;95010.00;;;5.89
62930;BMP280;49036;42.782;23.108;2023-01-04T07:34:58;95019.41;;;5.94
62930;BMP280;49036;42.782;23.108;2023-01-04T07:37:24;95025.53;;;6.00
62930;BMP280;49036;42.782;23.108;2023-01-04T07:39:49;95022.91;;;6.07
62930;BMP280;49036;42.782;23.108;2023-01-04T07:42:15;95025.53;;;6.00
62930;BMP280;49036;42.782;23.108;2023-01-04T07:44:42;95020.38;;;5.96
62930;BMP280;49036;42.782;23.108;2023-01-04T07:47:09;95020.38;;;5.96
62930;BMP280;49036;42.782;23.108;2023-01-04T07:49:34;95021.50;;;6.01
62930;BMP280;49036;42.782;23.108;2023-01-04T07:52:00;95028.22;;;6.05
62930;BMP280;49036;42.782;23.108;2023-01-04T07:54:25;95027.03;;;6.14
62930;BMP280;49036;42.782;23.108;2023-01-04T07:56:51;95026.59;;;6.23
62930;BMP280;49036;42.782;23.108;2023-01-04T07:59:19;95026.03;;;6.38
62930;BMP280;49036;42.782;23.108;2023-01-04T08:01:45;95032.22;;;6.44
62930;BMP280;49036;42.782;23.108;2023-01-04T08:04:11;95027.50;;;6.52
62930;BMP280;49036;42.782;23.108;2023-01-04T08:06:38;95045.34;;;6.38
62930;BMP280;49036;42.782;23.108;2023-01-04T08:09:05;95030.41;;;6.33
62930;BMP280;49036;42.782;23.108;2023-01-04T08:11:32;95032.09;;;6.36
62930;BMP280;49036;42.782;23.108;2023-01-04T08:13:57;95034.13;;;6.36
62930;BMP280;49036;42.782;23.108;2023-01-04T08:16:37;95042.59;;;6.25
62930;BMP280;49036;42.782;23.108;2023-01-04T08:19:21;95038.56;;;6.26
62930;BMP280;49036;42.782;23.108;2023-01-04T08:21:47;95044.41;;;6.35
62930;BMP280;49036;42.782;23.108;2023-01-04T08:24:15;95041.22;;;6.45
62930;BMP280;49036;42.782;23.108;2023-01-04T08:26:41;95032.72;;;6.56
62930;BMP280;49036;42.782;23.108;2023-01-04T08:29:07;95033.47;;;6.56
62930;BMP280;49036;42.782;23.108;2023-01-04T08:31:33;95047.25;;;6.56
62930;BMP280;49036;42.782;23.108;2023-01-04T08:34:02;95037.50;;;6.55
62930;BMP280;49036;42.782;23.108;2023-01-04T08:36:30;95052.84;;;6.51
62930;BMP280;49036;42.782;23.108;2023-01-04T08:39:00;95044.28;;;6.54
62930;BMP280;49036;42.782;23.108;2023-01-04T08:41:27;95039.50;;;6.55
62930;BMP280;49036;42.782;23.108;2023-01-04T08:43:53;95046.03;;;6.65
62930;BMP280;49036;42.782;23.108;2023-01-04T08:46:18;95036.81;;;6.62
62930;BMP280;49036;42.782;23.108;2023-01-04T08:48:44;95048.09;;;6.51
62930;BMP280;49036;42.782;23.108;2023-01-04T08:51:13;95042.56;;;6.51
62930;BMP280;49036;42.782;23.108;2023-01-04T08:53:39;95042.16;;;6.47
62930;BMP280;49036;42.782;23.108;2023-01-04T08:56:05;95035.59;;;6.37
62930;BMP280;49036;42.782;23.108;2023-01-04T08:58:32;95042.81;;;6.40
62930;BMP280;49036;42.782;23.108;2023-01-04T09:00:59;95045.34;;;6.38
62930;BMP280;49036;42.782;23.108;2023-01-04T09:03:26;95042.06;;;6.39
62930;BMP280;49036;42.782;23.108;2023-01-04T09:05:52;95046.81;;;6.52
62930;BMP280;49036;42.782;23.108;2023-01-04T09:08:17;95040.03;;;6.53
62930;BMP280;49036;42.782;23.108;2023-01-04T09:10:43;95045.78;;;6.42
62930;BMP280;49036;42.782;23.108;2023-01-04T09:13:08;95038.78;;;6.41
62930;BMP280;49036;42.782;23.108;2023-01-04T09:15:34;95033.28;;;6.41
62930;BMP280;49036;42.782;23.108;2023-01-04T09:17:59;95031.22;;;6.55
62930;BMP280;49036;42.782;23.108;2023-01-04T09:20:25;95038.41;;;6.58
62930;BMP280;49036;42.782;23.108;2023-01-04T09:22:51;95046.41;;;6.48
62930;BMP280;49036;42.782;23.108;2023-01-04T09:25:17;95038.78;;;6.54
62930;BMP280;49036;42.782;23.108;2023-01-04T09:27:43;95043.63;;;6.61
62930;BMP280;49036;42.782;23.108;2023-01-04T09:30:09;95046.88;;;6.73
62930;BMP280;49036;42.782;23.108;2023-01-04T09:32:35;95029.06;;;6.74
62930;BMP280;49036;42.782;23.108;2023-01-04T09:35:00;95027.97;;;6.77
62930;BMP280;49036;42.782;23.108;2023-01-04T09:37:26;95031.22;;;6.89
62930;BMP280;49036;42.782;23.108;2023-01-04T09:39:52;95025.25;;;6.98
62930;BMP280;49036;42.782;23.108;2023-01-04T09:42:38;95017.19;;;7.00
62930;BMP280;49036;42.782;23.108;2023-01-04T09:45:16;95027.69;;;7.02
62930;BMP280;49036;42.782;23.108;2023-01-04T09:48:05;95029.94;;;6.90
62930;BMP280;49036;42.782;23.108;2023-01-04T09:50:55;95024.34;;;6.82
62930;BMP280;49036;42.782;23.108;2023-01-04T09:53:32;95024.97;;;6.88
62930;BMP280;49036;42.782;23.108;2023-01-04T09:56:30;95016.19;;;7.11
62930;BMP280;49036;42.782;23.108;2023-01-04T09:58:57;95023.25;;;6.98
62930;BMP280;49036;42.782;23.108;2023-01-04T10:01:27;95018.53;;;7.07
62930;BMP280;49036;42.782;23.108;2023-01-04T10:06:46;95017.72;;;7.19
62930;BMP280;49036;42.782;23.108;2023-01-04T10:09:13;95028.34;;;7.36
62930;BMP280;49036;42.782;23.108;2023-01-04T10:17:25;95009.66;;;8.07
62930;BMP280;49036;42.782;23.108;2023-01-04T10:32:44;95008.97;;;7.08
62930;BMP280;49036;42.782;23.108;2023-01-04T10:35:22;95014.06;;;7.24
62930;BMP280;49036;42.782;23.108;2023-01-04T10:37:56;95009.75;;;7.37
62930;BMP280;49036;42.782;23.108;2023-01-04T10:40:22;95003.47;;;7.36
62930;BMP280;49036;42.782;23.108;2023-01-04T10:43:04;95003.22;;;7.76
62930;BMP280;49036;42.782;23.108;2023-01-04T10:45:42;95004.41;;;7.88
62930;BMP280;49036;42.782;23.108;2023-01-04T10:48:36;94995.81;;;8.07
62930;BMP280;49036;42.782;23.108;2023-01-04T10:51:03;95000.50;;;8.19
62930;BMP280;49036;42.782;23.108;2023-01-04T10:56:37;94994.66;;;8.31
62930;BMP280;49036;42.782;23.108;2023-01-04T10:59:02;95000.72;;;8.21
62930;BMP280;49036;42.782;23.108;2023-01-04T11:01:47;94992.44;;;8.29
62930;BMP280;49036;42.782;23.108;2023-01-04T11:07:05;94986.44;;;8.02
62930;BMP280;49036;42.782;23.108;2023-01-04T11:09:37;94974.09;;;8.03
62930;BMP280;49036;42.782;23.108;2023-01-04T11:12:05;94976.91;;;8.26
62930;BMP280;49036;42.782;23.108;2023-01-04T11:14:33;94984.25;;;8.08
62930;BMP280;49036;42.782;23.108;2023-01-04T11:17:01;94975.69;;;7.91
62930;BMP280;49036;42.782;23.108;2023-01-04T11:19:28;94982.53;;;7.98
62930;BMP280;49036;42.782;23.108;2023-01-04T11:22:08;94979.28;;;8.14
62930;BMP280;49036;42.782;23.108;2023-01-04T11:24:36;94975.94;;;8.08
62930;BMP280;49036;42.782;23.108;2023-01-04T11:27:12;94965.31;;;8.20
62930;BMP280;49036;42.782;23.108;2023-01-04T11:30:03;94968.84;;;8.28
62930;BMP280;49036;42.782;23.108;2023-01-04T11:32:42;94970.88;;;8.28
62930;BMP280;49036;42.782;23.108;2023-01-04T11:35:08;94961.16;;;8.49
62930;BMP280;49036;42.782;23.108;2023-01-04T11:37:36;94966.09;;;8.36
62930;BMP280;49036;42.782;23.108;2023-01-04T11:42:43;94950.47;;;8.69
62930;BMP280;49036;42.782;23.108;2023-01-04T11:45:24;94947.31;;;8.57
62930;BMP280;49036;42.782;23.108;2023-01-04T11:47:54;94942.00;;;8.59
62930;BMP280;49036;42.782;23.108;2023-01-04T11:50:41;94934.84;;;8.94
62930;BMP280;49036;42.782;23.108;2023-01-04T11:53:23;94938.88;;;9.24
62930;BMP280;49036;42.782;23.108;2023-01-04T11:55:50;94940.81;;;9.76
62930;BMP280;49036;42.782;23.108;2023-01-04T11:58:17;94942.72;;;10.06
62930;BMP280;49036;42.782;23.108;2023-01-04T12:00:55;94934.31;;;9.74
62930;BMP280;49036;42.782;23.108;2023-01-04T12:03:27;94940.00;;;9.21
62930;BMP280;49036;42.782;23.108;2023-01-04T12:05:53;94943.16;;;8.87
62930;BMP280;49036;42.782;23.108;2023-01-04T12:10:54;94953.31;;;8.33
62930;BMP280;49036;42.782;23.108;2023-01-04T12:13:20;94950.22;;;8.29
62930;BMP280;49036;42.782;23.108;2023-01-04T12:16:03;94947.63;;;8.31
62930;BMP280;49036;42.782;23.108;2023-01-04T12:18:38;94942.66;;;8.37
62930;BMP280;49036;42.782;23.108;2023-01-04T12:21:13;94945.09;;;8.48
62930;BMP280;49036;42.782;23.108;2023-01-04T12:23:40;94944.13;;;8.23
62930;BMP280;49036;42.782;23.108;2023-01-04T12:26:10;94947.78;;;8.25
62930;BMP280;49036;42.782;23.108;2023-01-04T12:28:38;94939.34;;;8.31
62930;BMP280;49036;42.782;23.108;2023-01-04T12:33:48;94940.44;;;8.28
62930;BMP280;49036;42.782;23.108;2023-01-04T12:36:21;94940.81;;;8.32
62930;BMP280;49036;42.782;23.108;2023-01-04T12:50:22;94924.66;;;8.00
62930;BMP280;49036;42.782;23.108;2023-01-04T12:53:03;94921.97;;;8.15
62930;BMP280;49036;42.782;23.108;2023-01-04T12:57:59;94921.91;;;8.66
62930;BMP280;49036;42.782;23.108;2023-01-04T13:06:01;94924.66;;;8.66
62930;BMP280;49036;42.782;23.108;2023-01-04T13:08:28;94934.06;;;8.71
62930;BMP280;49036;42.782;23.108;2023-01-04T13:10:58;94940.31;;;8.41
62930;BMP280;49036;42.782;23.108;2023-01-04T13:18:43;94934.06;;;7.97
62930;BMP280;49036;42.782;23.108;2023-01-04T13:21:11;94943.97;;;7.84
62930;BMP280;49036;42.782;23.108;2023-01-04T13:23:38;94938.38;;;7.77
62930;BMP280;49036;42.782;23.108;2023-01-04T13:26:41;94954.47;;;7.57
62930;BMP280;49036;42.782;23.108;2023-01-04T13:34:23;94958.13;;;7.24
62930;BMP280;49036;42.782;23.108;2023-01-04T13:37:20;94955.81;;;7.15
62930;BMP280;49036;42.782;23.108;2023-01-04T13:40:03;94967.28;;;7.19
62930;BMP280;49036;42.782;23.108;2023-01-04T13:42:35;94957.91;;;7.22
62930;BMP280;49036;42.782;23.108;2023-01-04T13:45:14;94963.75;;;7.11
62930;BMP280;49036;42.782;23.108;2023-01-04T13:47:43;94952.59;;;7.03
62930;BMP280;49036;42.782;23.108;2023-01-04T13:50:34;94955.03;;;7.07
62930;BMP280;49036;42.782;23.108;2023-01-04T13:53:01;94950.22;;;6.99
62930;BMP280;49036;42.782;23.108;2023-01-04T13:55:29;94945.81;;;6.83
62930;BMP280;49036;42.782;23.108;2023-01-04T14:00:23;94952.59;;;6.82
62930;BMP280;49036;42.782;23.108;2023-01-04T14:03:13;94949.38;;;6.70
62930;BMP280;49036;42.782;23.108;2023-01-04T14:05:48;94959.00;;;6.56
62930;BMP280;49036;42.782;23.108;2023-01-04T14:08:22;94954.25;;;6.44
62930;BMP280;49036;42.782;23.108;2023-01-04T14:10:50;94952.44;;;6.46
62930;BMP280;49036;42.782;23.108;2023-01-04T14:13:16;94945.78;;;6.42
62930;BMP280;49036;42.782;23.108;2023-01-04T14:15:43;94952.16;;;6.36
62930;BMP280;49036;42.782;23.108;2023-01-04T14:18:44;94957.88;;;6.25
62930;BMP280;49036;42.782;23.108;2023-01-04T14:21:16;94954.28;;;6.30
62930;BMP280;49036;42.782;23.108;2023-01-04T14:23:42;94956.22;;;6.22
62930;BMP280;49036;42.782;23.108;2023-01-04T14:26:31;94955.59;;;6.16
62930;BMP280;49036;42.782;23.108;2023-01-04T14:28:56;94950.28;;;6.18
62930;BMP280;49036;42.782;23.108;2023-01-04T14:31:26;94954.25;;;6.09
62930;BMP280;49036;42.782;23.108;2023-01-04T14:33:53;94952.84;;;6.16
62930;BMP280;49036;42.782;23.108;2023-01-04T14:36:24;94943.22;;;6.09
62930;BMP280;49036;42.782;23.108;2023-01-04T14:41:35;94952.63;;;6.01
62930;BMP280;49036;42.782;23.108;2023-01-04T14:44:15;94944.81;;;5.92
62930;BMP280;49036;42.782;23.108;2023-01-04T14:46:42;94960.06;;;5.93
62930;BMP280;49036;42.782;23.108;2023-01-04T14:49:11;94944.38;;;5.88
62930;BMP280;49036;42.782;23.108;2023-01-04T14:51:43;94950.00;;;5.82
62930;BMP280;49036;42.782;23.108;2023-01-04T14:54:11;94953.19;;;5.86
62930;BMP280;49036;42.782;23.108;2023-01-04T14:56:38;94944.91;;;5.86
62930;BMP280;49036;42.782;23.108;2023-01-04T14:59:04;94955.00;;;5.84
62930;BMP280;49036;42.782;23.108;2023-01-04T15:01:30;94946.75;;;5.84
62930;BMP280;49036;42.782;23.108;2023-01-04T15:03:55;94949.59;;;5.78
62930;BMP280;49036;42.782;23.108;2023-01-04T15:06:21;94939.22;;;5.71
62930;BMP280;49036;42.782;23.108;2023-01-04T15:08:46;94950.44;;;5.73
62930;BMP280;49036;42.782;23.108;2023-01-04T15:11:13;94949.50;;;5.70
62930;BMP280;49036;42.782;23.108;2023-01-04T15:13:39;94955.75;;;5.71
62930;BMP280;49036;42.782;23.108;2023-01-04T15:16:05;94955.19;;;5.72
62930;BMP280;49036;42.782;23.108;2023-01-04T15:18:31;94943.25;;;5.70
62930;BMP280;49036;42.782;23.108;2023-01-04T15:20:56;94952.56;;;5.67
62930;BMP280;49036;42.782;23.108;2023-01-04T15:23:22;94950.34;;;5.65
62930;BMP280;49036;42.782;23.108;2023-01-04T15:25:47;94953.63;;;5.64
62930;BMP280;49036;42.782;23.108;2023-01-04T15:28:13;94960.09;;;5.66
62930;BMP280;49036;42.782;23.108;2023-01-04T15:30:40;94959.63;;;5.62
62930;BMP280;49036;42.782;23.108;2023-01-04T15:33:06;94966.41;;;5.61
62930;BMP280;49036;42.782;23.108;2023-01-04T15:35:32;94958.69;;;5.60
62930;BMP280;49036;42.782;23.108;2023-01-04T15:37:57;94971.19;;;5.61
62930;BMP280;49036;42.782;23.108;2023-01-04T15:40:23;94958.50;;;5.58
62930;BMP280;49036;42.782;23.108;2023-01-04T15:42:48;94961.75;;;5.56
62930;BMP280;49036;42.782;23.108;2023-01-04T15:45:24;94970.13;;;5.50
62930;BMP280;49036;42.782;23.108;2023-01-04T15:47:50;94967.06;;;5.54
62930;BMP280;49036;42.782;23.108;2023-01-04T15:50:16;94971.09;;;5.53
62930;BMP280;49036;42.782;23.108;2023-01-04T15:52:42;94970.34;;;5.53
62930;BMP280;49036;42.782;23.108;2023-01-04T15:55:08;94971.38;;;5.49
62930;BMP280;49036;42.782;23.108;2023-01-04T15:57:33;94971.19;;;5.47
62930;BMP280;49036;42.782;23.108;2023-01-04T15:59:59;94974.28;;;5.44
62930;BMP280;49036;42.782;23.108;2023-01-04T16:02:24;94970.53;;;5.41
62930;BMP280;49036;42.782;23.108;2023-01-04T16:04:50;94969.59;;;5.39
62930;BMP280;49036;42.782;23.108;2023-01-04T16:07:16;94973.00;;;5.45
62930;BMP280;49036;42.782;23.108;2023-01-04T16:09:42;94970.41;;;5.34
62930;BMP280;49036;42.782;23.108;2023-01-04T16:12:07;94969.25;;;5.29